createdAt,value
2022-08-08T00:00:59.704Z,3.03
2022-08-08T00:03:31.401Z,3.00
2022-08-08T00:06:12.565Z,3.10
2022-08-08T00:08:56.804Z,2.92
2022-08-08T00:11:24.296Z,2.58
2022-08-08T00:14:14.829Z,3.13
2022-08-08T00:16:53.330Z,3.42
2022-08-08T00:19:29.304Z,2.78
2022-08-08T00:22:01.482Z,2.90
2022-08-08T00:24:32.242Z,2.80
2022-08-08T00:27:01.289Z,2.95
2022-08-08T00:29:45.672Z,3.05
2022-08-08T00:32:35.097Z,2.80
2022-08-08T00:35:21.048Z,3.17
2022-08-08T00:38:06.544Z,3.00
2022-08-08T00:41:09.555Z,2.90
2022-08-08T00:43:40.126Z,2.90
2022-08-08T00:46:25.504Z,3.33
2022-08-08T00:49:22.802Z,3.05
2022-08-08T00:52:08.919Z,3.00
2022-08-08T00:55:04.085Z,3.47
2022-08-08T00:57:35.993Z,3.17
2022-08-08T01:00:07.754Z,2.83
2022-08-08T01:03:58.790Z,3.30
2022-08-08T01:05:59.397Z,3.15
2022-08-08T01:08:56.202Z,3.40
2022-08-08T01:11:55.558Z,3.13
2022-08-08T01:14:54.218Z,3.45
2022-08-08T01:17:35.013Z,3.38
2022-08-08T01:20:33.914Z,3.30
2022-08-08T01:23:55.029Z,2.97
2022-08-08T01:26:11.204Z,3.45
2022-08-08T01:28:51.531Z,3.75
2022-08-08T01:32:05.829Z,3.10
2022-08-08T01:34:37.049Z,3.83
2022-08-08T01:37:51.209Z,3.40
2022-08-08T01:40:23.948Z,3.53
2022-08-08T01:43:15.588Z,4.20
2022-08-08T01:45:57.222Z,3.22
2022-08-08T01:48:37.764Z,3.50
2022-08-08T01:51:31.381Z,4.13
2022-08-08T01:54:32.969Z,3.47
2022-08-08T01:57:06.541Z,3.92
2022-08-08T02:00:02.579Z,3.58
2022-08-08T02:02:46.262Z,3.70
2022-08-08T02:05:33.774Z,3.72
2022-08-08T02:08:45.677Z,3.58
2022-08-08T02:12:00.144Z,4.15
2022-08-08T02:14:31.800Z,4.07
2022-08-08T02:17:03.736Z,3.92
2022-08-08T02:20:07.914Z,4.05
2022-08-08T02:22:52.372Z,4.40
2022-08-08T02:25:33.113Z,4.20
2022-08-08T02:28:17.363Z,3.60
2022-08-08T02:31:01.958Z,4.57
2022-08-08T02:34:00.556Z,3.58
2022-08-08T02:36:28.621Z,3.55
2022-08-08T02:39:01.172Z,4.28
2022-08-08T02:41:58.500Z,3.92
2022-08-08T02:44:37.344Z,4.13
2022-08-08T02:47:12.613Z,4.00
2022-08-08T02:50:02.334Z,3.90
2022-08-08T02:52:51.319Z,3.75
2022-08-08T02:55:24.014Z,4.10
2022-08-08T02:58:15.150Z,3.72
2022-08-08T03:01:01.087Z,4.72
2022-08-08T03:05:05.204Z,4.25
2022-08-08T03:06:48.928Z,3.83
2022-08-08T03:09:34.156Z,3.45
2022-08-08T03:12:36.851Z,4.05
2022-08-08T03:15:57.290Z,4.15
2022-08-08T03:18:13.552Z,4.68
2022-08-08T03:20:51.401Z,3.97
2022-08-08T03:23:56.629Z,3.92
2022-08-08T03:26:22.901Z,3.78
2022-08-08T03:28:53.557Z,4.38
2022-08-08T03:32:05.041Z,4.78
2022-08-08T03:34:27.311Z,4.40
2022-08-08T03:36:54.250Z,4.25
2022-08-08T03:39:20.677Z,4.97
2022-08-08T03:42:28.188Z,4.10
2022-08-08T03:44:39.294Z,4.30
2022-08-08T03:47:19.847Z,4.25
2022-08-08T03:50:00.894Z,4.60
2022-08-08T03:52:35.849Z,4.57
2022-08-08T03:55:44.947Z,4.10
2022-08-08T03:58:09.676Z,4.47
2022-08-08T04:01:01.618Z,5.07
2022-08-08T04:03:58.018Z,4.20
2022-08-08T04:06:23.807Z,4.35
2022-08-08T04:08:55.874Z,4.47
2022-08-08T04:11:25.380Z,4.28
2022-08-08T04:14:03.808Z,4.40
2022-08-08T04:16:41.425Z,4.25
2022-08-08T04:19:23.509Z,4.88
2022-08-08T04:21:54.304Z,4.43
2022-08-08T04:24:28.691Z,4.05
2022-08-08T04:26:58.718Z,4.07
2022-08-08T04:29:27.845Z,4.15
2022-08-08T04:32:06.828Z,4.82
2022-08-08T04:34:43.084Z,4.00
2022-08-08T04:37:31.792Z,4.43
2022-08-08T04:40:05.816Z,4.47
2022-08-08T04:42:46.571Z,4.97
2022-08-08T05:05:01.954Z,5.00
2022-08-08T05:07:37.846Z,4.35
2022-08-08T05:10:12.906Z,4.80
2022-08-08T05:12:59.799Z,3.80
2022-08-08T05:16:48.323Z,4.40
2022-08-08T05:18:13.601Z,4.47
2022-08-08T05:20:49.975Z,3.92
2022-08-08T05:23:17.713Z,4.40
2022-08-08T05:25:44.142Z,4.22
2022-08-08T05:28:14.978Z,4.00
2022-08-08T05:30:47.035Z,3.92
2022-08-08T05:33:14.533Z,3.47
2022-08-08T05:35:43.817Z,3.85
2022-08-08T05:38:32.019Z,3.55
2022-08-08T05:41:07.159Z,3.78
2022-08-08T05:43:39.669Z,3.45
2022-08-08T05:46:10.118Z,3.25
2022-08-08T05:48:41.753Z,3.53
2022-08-08T05:51:13.536Z,3.42
2022-08-08T05:54:25.841Z,3.40
2022-08-08T05:56:38.528Z,4.03
2022-08-08T06:00:00.907Z,3.50
2022-08-08T06:02:29.974Z,3.50
2022-08-08T06:04:58.818Z,3.38
2022-08-08T06:07:25.932Z,3.60
2022-08-08T06:09:59.944Z,3.10
2022-08-08T06:12:31.878Z,6.10
2022-08-08T06:15:03.110Z,3.00
2022-08-08T06:17:51.129Z,2.75
2022-08-08T06:20:27.135Z,3.60
2022-08-08T06:23:02.392Z,3.22
2022-08-08T06:26:38.799Z,3.50
2022-08-08T06:28:34.470Z,2.90
2022-08-08T06:31:03.057Z,2.90
2022-08-08T06:33:37.002Z,3.17
2022-08-08T06:36:28.990Z,3.00
2022-08-08T06:38:55.890Z,3.20
2022-08-08T06:41:22.442Z,3.15
2022-08-08T06:43:57.165Z,2.97
2022-08-08T06:46:29.995Z,2.97
2022-08-08T06:48:58.289Z,3.17
2022-08-08T06:51:45.831Z,2.90
2022-08-08T06:54:13.312Z,3.55
2022-08-08T06:56:41.966Z,2.63
2022-08-08T06:59:18.596Z,3.13
2022-08-08T07:02:26.875Z,2.75
2022-08-08T07:04:56.254Z,3.03
2022-08-08T07:07:43.244Z,2.38
2022-08-08T07:10:12.680Z,2.97
2022-08-08T07:12:43.650Z,2.45
2022-08-08T07:16:04.993Z,2.72
2022-08-08T07:18:58.245Z,2.53
2022-08-08T07:22:11.948Z,2.80
2022-08-08T07:24:54.038Z,2.97
2022-08-08T07:27:35.516Z,2.92
2022-08-08T07:30:21.275Z,2.63
2022-08-08T07:32:59.667Z,2.63
2022-08-08T07:35:35.775Z,2.67
2022-08-08T07:38:18.490Z,3.33
2022-08-08T07:40:55.520Z,2.80
2022-08-08T07:43:36.910Z,2.80
2022-08-08T07:46:23.909Z,2.58
2022-08-08T07:48:55.674Z,2.58
2022-08-08T07:51:45.070Z,2.15
2022-08-08T07:54:44.907Z,3.22
2022-08-08T08:04:19.616Z,2.30
2022-08-08T08:06:50.148Z,2.47
2022-08-08T08:12:03.838Z,2.00
2022-08-08T08:14:43.301Z,2.78
2022-08-08T08:17:15.675Z,2.08
2022-08-08T08:20:07.584Z,2.63
2022-08-08T08:23:15.533Z,1.95
2022-08-08T08:25:55.127Z,2.20
2022-08-08T08:28:29.087Z,2.42
2022-08-08T08:31:05.081Z,2.00
2022-08-08T08:33:34.673Z,2.00
2022-08-08T08:36:18.522Z,2.08
2022-08-08T08:38:50.201Z,2.50
2022-08-08T08:41:40.229Z,2.00
2022-08-08T08:44:13.508Z,2.05
2022-08-08T08:46:45.616Z,2.00
2022-08-08T08:49:38.060Z,2.00
2022-08-08T08:52:15.395Z,1.40
2022-08-08T08:54:42.442Z,1.80
2022-08-08T08:57:15.882Z,1.60
2022-08-08T09:00:15.573Z,1.65
2022-08-08T09:02:47.288Z,1.70
2022-08-08T09:05:28.995Z,1.83
2022-08-08T09:08:12.898Z,1.98
2022-08-08T09:10:48.081Z,1.58
2022-08-08T09:13:16.705Z,1.70
2022-08-08T09:15:43.954Z,1.58
2022-08-08T09:18:18.092Z,1.60
2022-08-08T09:21:58.129Z,1.70
2022-08-08T09:23:38.372Z,1.90
2022-08-08T09:26:21.424Z,1.80
2022-08-08T09:28:49.724Z,1.60
2022-08-08T09:31:28.980Z,1.80
2022-08-08T09:34:30.290Z,1.50
2022-08-08T09:37:57.477Z,1.58
2022-08-08T09:40:10.626Z,1.98
2022-08-08T09:42:44.369Z,1.50
2022-08-08T09:46:01.101Z,1.40
2022-08-08T09:48:22.891Z,1.70
2022-08-08T09:51:04.666Z,1.85
2022-08-08T09:53:59.822Z,1.75
2022-08-08T09:56:25.359Z,1.70
2022-08-08T09:58:57.860Z,1.50
2022-08-08T10:01:59.972Z,1.63
2022-08-08T10:04:15.221Z,1.80
2022-08-08T10:07:07.222Z,1.58
2022-08-08T10:09:35.843Z,2.00
2022-08-08T10:12:37.483Z,1.70
2022-08-08T10:15:18.042Z,1.52
2022-08-08T10:18:07.224Z,1.60
2022-08-08T10:20:58.133Z,1.60
2022-08-08T10:23:42.297Z,1.67
2022-08-08T10:26:30.958Z,2.05
2022-08-08T10:29:07.792Z,2.00
2022-08-08T10:31:57.130Z,1.73
2022-08-08T10:34:25.164Z,2.20
2022-08-08T10:36:54.971Z,1.98
2022-08-08T10:39:31.698Z,2.28
2022-08-08T10:42:16.661Z,1.77
2022-08-08T10:44:45.751Z,2.25
2022-08-08T10:47:13.494Z,1.92
2022-08-08T10:50:01.353Z,1.98
2022-08-08T10:52:31.067Z,1.77
2022-08-08T10:54:59.240Z,2.00
2022-08-08T10:57:49.737Z,1.95
2022-08-08T11:00:25.716Z,2.03
2022-08-08T11:02:53.117Z,2.03
2022-08-08T11:05:19.588Z,1.88
2022-08-08T11:08:38.720Z,2.05
2022-08-08T11:10:41.228Z,2.00
2022-08-08T11:16:00.600Z,2.05
2022-08-08T11:18:30.011Z,1.95
2022-08-08T11:20:57.426Z,1.98
2022-08-08T11:23:25.146Z,1.80
2022-08-08T11:25:58.864Z,1.75
2022-08-08T11:28:29.361Z,1.90
2022-08-08T11:30:59.735Z,1.85
2022-08-08T11:33:51.563Z,2.15
2022-08-08T11:36:15.537Z,2.00
2022-08-08T11:38:53.735Z,1.95
2022-08-08T11:41:22.135Z,1.80
2022-08-08T11:43:49.214Z,1.95
2022-08-08T11:46:18.051Z,2.47
2022-08-08T11:48:47.227Z,1.70
2022-08-08T11:51:30.904Z,2.60
2022-08-08T11:54:04.281Z,2.42
2022-08-08T11:56:35.086Z,2.00
2022-08-08T12:01:31.936Z,2.20
2022-08-08T12:04:03.340Z,2.15
2022-08-08T12:06:29.906Z,2.08
2022-08-08T12:09:07.055Z,2.10
2022-08-08T12:11:37.932Z,2.00
2022-08-08T12:14:04.884Z,1.95
2022-08-08T12:16:39.585Z,2.10
2022-08-08T12:19:13.503Z,2.22
2022-08-08T12:21:59.780Z,2.15
2022-08-08T12:24:28.050Z,2.00
2022-08-08T12:26:58.405Z,1.80
2022-08-08T12:29:42.015Z,1.83
2022-08-08T12:32:19.687Z,2.40
2022-08-08T12:35:04.368Z,2.28
2022-08-08T12:37:40.128Z,2.13
2022-08-08T12:40:22.569Z,1.80
2022-08-08T12:42:51.302Z,1.80
2022-08-08T12:45:54.278Z,1.98
2022-08-08T12:48:10.351Z,1.95
2022-08-08T12:50:57.697Z,1.85
2022-08-08T12:53:36.394Z,1.70
2022-08-08T12:56:19.796Z,1.60
2022-08-08T12:58:51.182Z,1.90
2022-08-08T13:01:34.634Z,2.00
2022-08-08T13:04:12.154Z,1.65
2022-08-08T13:07:01.302Z,1.60
2022-08-08T13:09:57.454Z,1.80
2022-08-08T13:12:34.437Z,1.92
2022-08-08T13:15:03.101Z,2.20
2022-08-08T13:18:09.885Z,1.73
2022-08-08T13:20:18.495Z,2.22
2022-08-08T13:22:45.679Z,2.00
2022-08-08T13:25:16.231Z,1.92
2022-08-08T13:27:43.614Z,1.58
2022-08-08T13:30:14.985Z,1.73
2022-08-08T13:32:47.426Z,2.00
2022-08-08T13:35:25.046Z,1.90
2022-08-08T13:38:17.725Z,1.95
2022-08-08T13:40:44.678Z,2.35
2022-08-08T13:43:11.782Z,2.15
2022-08-08T13:45:39.112Z,1.92
2022-08-08T13:48:14.396Z,1.90
2022-08-08T13:50:53.673Z,1.98
2022-08-08T13:53:34.089Z,2.13
2022-08-08T13:56:05.905Z,1.80
2022-08-08T13:58:33.068Z,1.65
2022-08-08T14:01:10.767Z,2.05
2022-08-08T14:03:52.584Z,1.65
2022-08-08T14:06:34.260Z,2.17
2022-08-08T14:09:24.259Z,2.22
2022-08-08T14:11:50.037Z,1.52
2022-08-08T14:14:20.887Z,2.03
2022-08-08T14:16:52.884Z,1.80
2022-08-08T14:19:57.973Z,1.70
2022-08-08T14:22:26.942Z,2.08
2022-08-08T14:24:58.896Z,1.75
2022-08-08T14:27:28.888Z,1.70
2022-08-08T14:30:17.957Z,1.70
2022-08-08T14:32:53.344Z,1.88
2022-08-08T14:35:28.388Z,1.58
2022-08-08T14:38:09.489Z,1.73
2022-08-08T14:40:52.200Z,1.60
2022-08-08T14:44:02.266Z,1.80
2022-08-08T14:46:13.921Z,1.95
2022-08-08T14:48:42.360Z,1.63
2022-08-08T14:51:24.764Z,1.67
2022-08-08T14:53:59.066Z,1.70
2022-08-08T14:56:26.040Z,1.73
2022-08-08T14:58:54.300Z,1.90
2022-08-08T15:01:37.614Z,1.80
2022-08-08T15:04:09.570Z,2.08
2022-08-08T15:06:37.284Z,2.03
2022-08-08T15:09:04.425Z,1.65
2022-08-08T15:11:37.410Z,2.10
2022-08-08T15:14:14.367Z,1.83
2022-08-08T15:16:42.429Z,2.00
2022-08-08T15:19:09.307Z,2.17
2022-08-08T15:21:42.642Z,1.80
2022-08-08T15:24:13.716Z,1.85
2022-08-08T15:26:41.710Z,2.10
2022-08-08T15:29:08.249Z,1.67
2022-08-08T15:32:03.167Z,1.92
2022-08-08T15:34:31.936Z,2.00
2022-08-08T15:36:59.555Z,2.80
2022-08-08T15:39:31.424Z,2.63
2022-08-08T15:42:04.547Z,2.80
2022-08-08T15:44:32.430Z,2.70
2022-08-08T15:46:58.875Z,2.40
2022-08-08T15:49:27.601Z,2.45
2022-08-08T15:54:38.556Z,2.35
2022-08-08T15:57:07.469Z,1.67
2022-08-08T16:00:05.837Z,1.73
2022-08-08T16:02:21.533Z,1.90
2022-08-08T16:04:53.446Z,1.60
2022-08-08T16:07:21.210Z,1.95
2022-08-08T16:13:03.969Z,1.88
2022-08-08T16:13:28.722Z,2.10
2022-08-08T16:15:20.805Z,2.05
2022-08-08T16:18:06.517Z,2.70
2022-08-08T16:20:34.107Z,3.13
2022-08-08T16:23:02.658Z,3.10
2022-08-08T16:25:45.882Z,3.17
2022-08-08T16:28:22.750Z,2.90
2022-08-08T16:31:06.294Z,3.08
2022-08-08T16:33:38.141Z,2.97
2022-08-08T16:36:05.792Z,3.85
2022-08-08T16:38:35.856Z,3.00
2022-08-08T16:41:07.722Z,2.40
2022-08-08T16:43:49.157Z,2.35
2022-08-08T16:46:43.113Z,2.13
2022-08-08T16:49:04.978Z,2.55
2022-08-08T16:55:05.812Z,2.15
2022-08-08T16:55:18.390Z,2.33
2022-08-08T16:58:10.654Z,2.13
2022-08-08T16:59:53.863Z,2.67
2022-08-08T17:02:38.712Z,2.88
2022-08-08T17:05:07.464Z,2.20
2022-08-08T17:07:37.939Z,2.30
2022-08-08T17:10:08.382Z,2.40
2022-08-08T17:12:36.800Z,2.58
2022-08-08T17:15:18.123Z,2.47
2022-08-08T17:18:02.633Z,1.95
2022-08-08T17:20:39.813Z,2.20
2022-08-08T17:23:18.464Z,2.13
2022-08-08T17:25:54.094Z,2.05
2022-08-08T17:28:34.311Z,2.45
2022-08-08T17:31:15.055Z,2.33
2022-08-08T17:34:48.044Z,2.95
2022-08-08T17:36:38.551Z,2.55
2022-08-08T17:40:03.533Z,1.98
2022-08-08T17:42:12.087Z,2.40
2022-08-08T17:44:39.854Z,2.65
2022-08-08T17:47:10.953Z,2.45
2022-08-08T17:49:43.584Z,2.20
2022-08-08T17:52:10.276Z,2.85
2022-08-08T17:54:37.550Z,2.50
2022-08-08T17:57:05.673Z,2.50
2022-08-08T17:59:45.358Z,2.50
2022-08-08T18:02:18.633Z,2.42
2022-08-08T18:04:50.377Z,2.30
2022-08-08T18:08:02.259Z,2.28
2022-08-08T18:10:04.076Z,2.30
2022-08-08T18:12:30.611Z,2.40
2022-08-08T18:14:57.571Z,2.30
2022-08-08T18:17:28.737Z,2.10
2022-08-08T18:20:43.587Z,2.33
2022-08-08T18:22:59.887Z,2.30
2022-08-08T18:25:26.363Z,2.50
2022-08-08T18:28:03.694Z,2.78
2022-08-08T18:30:30.152Z,2.50
2022-08-08T18:32:58.510Z,2.60
2022-08-08T18:35:25.223Z,2.67
2022-08-08T18:38:03.621Z,2.70
2022-08-08T18:40:45.555Z,2.35
2022-08-08T18:43:16.132Z,2.53
2022-08-08T18:48:29.996Z,2.47
2022-08-08T18:50:58.375Z,2.38
2022-08-08T18:53:29.625Z,2.30
2022-08-08T18:56:25.191Z,2.55
2022-08-08T18:58:53.633Z,2.40
2022-08-08T19:02:26.847Z,2.63
2022-08-08T19:04:10.856Z,2.45
2022-08-08T19:06:38.940Z,2.70
2022-08-08T19:09:13.160Z,2.90
2022-08-08T19:11:40.136Z,2.90
2022-08-08T19:14:13.282Z,2.78
2022-08-08T19:16:47.201Z,2.63
2022-08-08T19:19:14.854Z,2.78
2022-08-08T19:21:49.610Z,2.90
2022-08-08T19:24:42.751Z,2.88
2022-08-08T19:27:05.859Z,2.53
2022-08-08T19:29:35.611Z,3.17
2022-08-08T19:32:09.238Z,2.88
2022-08-08T19:34:41.596Z,2.97
2022-08-08T19:37:16.158Z,3.28
2022-08-08T19:39:43.421Z,2.60
2022-08-08T19:42:13.520Z,2.67
2022-08-08T19:44:43.076Z,3.08
2022-08-08T19:47:12.606Z,3.00
2022-08-08T19:49:39.347Z,2.55
2022-08-08T19:52:10.518Z,3.15
2022-08-08T19:54:38.411Z,3.20
2022-08-08T19:57:07.689Z,2.55
2022-08-08T19:59:35.036Z,2.80
2022-08-08T20:02:04.455Z,3.05
2022-08-08T20:04:32.263Z,3.20
2022-08-08T20:07:05.227Z,2.95
2022-08-08T20:09:55.733Z,3.00
2022-08-08T20:12:32.653Z,3.42
2022-08-08T20:15:02.420Z,2.95
2022-08-08T20:17:43.368Z,3.08
2022-08-08T20:20:12.789Z,3.25
2022-08-08T20:22:46.157Z,3.47
2022-08-08T20:25:17.413Z,3.20
2022-08-08T20:27:50.424Z,2.90
2022-08-08T20:30:52.475Z,3.05
2022-08-08T20:33:18.398Z,3.10
2022-08-08T20:35:58.729Z,3.13
2022-08-08T20:38:32.744Z,3.28
2022-08-08T20:41:00.458Z,3.25
2022-08-08T20:43:43.686Z,3.35
2022-08-08T20:46:14.900Z,2.90
2022-08-08T20:48:41.469Z,3.30
2022-08-08T20:51:07.978Z,3.72
2022-08-08T20:53:58.935Z,3.45
2022-08-08T20:56:35.445Z,3.67
2022-08-08T20:59:09.252Z,3.10
2022-08-08T21:01:44.244Z,3.22
2022-08-08T21:04:23.391Z,3.53
2022-08-08T21:06:53.065Z,3.05
2022-08-08T21:09:21.570Z,3.38
2022-08-08T21:11:51.898Z,3.03
2022-08-08T21:14:33.359Z,2.90
2022-08-08T21:17:02.022Z,3.45
2022-08-08T21:19:33.969Z,3.15
2022-08-08T21:22:11.312Z,3.22
2022-08-08T21:24:39.182Z,3.13
2022-08-08T21:27:08.309Z,3.75
2022-08-08T21:30:05.872Z,2.95
2022-08-08T21:32:37.279Z,3.70
2022-08-08T21:36:19.127Z,3.67
2022-08-08T21:37:54.283Z,3.10
2022-08-08T21:40:30.966Z,3.22
2022-08-08T21:42:58.571Z,3.58
2022-08-08T21:48:00.556Z,3.42
2022-08-08T21:48:16.355Z,3.85
2022-08-08T21:50:49.532Z,3.10
2022-08-08T21:54:33.972Z,3.58
2022-08-08T21:56:29.410Z,3.22
2022-08-08T21:58:55.007Z,3.38
2022-08-08T22:01:27.905Z,3.70
2022-08-08T22:04:10.610Z,3.95
2022-08-08T22:06:40.427Z,3.50
2022-08-08T22:09:08.178Z,3.28
2022-08-08T22:11:51.683Z,3.22
2022-08-08T22:14:22.082Z,3.35
2022-08-08T22:16:51.132Z,3.92
2022-08-08T22:19:19.991Z,3.85
2022-08-08T22:21:50.719Z,3.70
2022-08-08T22:24:18.029Z,3.20
2022-08-08T22:27:02.396Z,3.28
2022-08-08T22:30:01.002Z,2.95
2022-08-08T22:32:18.260Z,3.05
2022-08-08T22:34:51.151Z,3.28
2022-08-08T22:37:49.658Z,3.05
2022-08-08T22:40:16.617Z,3.10
2022-08-08T22:42:47.412Z,3.40
2022-08-08T22:45:14.745Z,2.88
2022-08-08T22:47:48.758Z,3.42
2022-08-08T22:50:26.471Z,3.40
2022-08-08T22:53:22.415Z,2.75
2022-08-08T22:55:59.231Z,3.20
2022-08-08T22:58:28.984Z,3.00
2022-08-08T23:00:58.225Z,2.75
2022-08-08T23:03:34.487Z,2.80
2022-08-08T23:06:15.870Z,2.58
2022-08-08T23:08:44.364Z,3.20
2022-08-08T23:11:21.392Z,2.97
2022-08-08T23:13:53.475Z,2.60
2022-08-08T23:16:39.240Z,2.75
2022-08-08T23:19:09.452Z,3.05
2022-08-08T23:21:37.833Z,2.92
2022-08-08T23:24:04.979Z,3.67
2022-08-08T23:26:31.468Z,3.15
2022-08-08T23:28:58.010Z,3.03
2022-08-08T23:31:24.633Z,2.95
2022-08-08T23:34:17.904Z,3.63
2022-08-08T23:36:38.929Z,3.00
2022-08-08T23:39:07.575Z,2.78
2022-08-08T23:41:45.885Z,3.03
2022-08-08T23:44:14.272Z,2.80
2022-08-08T23:49:01.959Z,3.35
2022-08-08T23:49:27.523Z,2.95
2022-08-08T23:52:04.907Z,3.13
2022-08-08T23:54:41.453Z,2.70
2022-08-08T23:57:26.639Z,3.10
